Time;durP1;ratioP1;P1;durP2;ratioP2;P2;SDS_P1;SDS_P2;PMS_P1;PMS_P2;Temp;Humidity;BMP_temperature;BMP_pressure;BME280_temperature;BME280_humidity;BME280_pressure;Samples;Min_cycle;Max_cycle;Signal;HPM_P1;HPM_P2
2023/06/09 00:00:58;;;;;;;4.68;4.22;;;;;;;20.04;58.52;93164.50;5011947;28;20037;-88
2023/06/09 00:03:24;;;;;;;5.38;4.10;;;;;;;20.04;58.37;93164.50;4993633;28;20419;-90
2023/06/09 00:05:49;;;;;;;4.22;3.83;;;;;;;20.04;58.39;93168.00;5007614;28;20081;-91
2023/06/09 00:08:15;;;;;;;4.88;4.10;;;;;;;20.02;58.53;93161.56;5024019;28;20042;-88
2023/06/09 00:10:40;;;;;;;5.40;4.57;;;;;;;20.00;58.48;93172.31;5027716;28;20046;-89
2023/06/09 00:13:06;;;;;;;4.90;4.40;;;;;;;20.02;58.54;93164.31;5010752;28;20638;-89
2023/06/09 00:15:32;;;;;;;4.25;3.85;;;;;;;20.01;58.45;93160.06;5028281;28;20096;-87
2023/06/09 00:17:57;;;;;;;4.45;4.05;;;;;;;20.01;58.36;93166.31;4995382;28;20458;-88
2023/06/09 00:20:23;;;;;;;15.63;4.15;;;;;;;20.00;58.52;93170.31;4994519;28;20053;-89
2023/06/09 00:22:49;;;;;;;4.40;4.00;;;;;;;20.01;58.47;93165.56;5028119;28;20387;-89
2023/06/09 00:25:15;;;;;;;4.90;3.75;;;;;;;20.01;58.28;93158.06;5027165;28;20037;-88
2023/06/09 00:27:42;;;;;;;6.22;4.30;;;;;;;19.99;58.46;93163.34;5027588;28;20365;-90
2023/06/09 00:30:08;;;;;;;5.10;4.00;;;;;;;19.98;58.43;93161.13;5010838;28;20034;-90
2023/06/09 00:32:34;;;;;;;4.70;3.97;;;;;;;20.02;58.31;93156.06;5010302;28;20095;-88
2023/06/09 00:34:59;;;;;;;5.32;4.07;;;;;;;19.99;58.40;93152.38;4994832;28;20038;-88
2023/06/09 00:37:24;;;;;;;4.63;4.10;;;;;;;20.01;58.23;93149.84;4997661;28;20506;-88
2023/06/09 00:39:50;;;;;;;4.80;4.18;;;;;;;19.98;58.34;93153.63;5011188;28;20026;-88
2023/06/09 00:42:15;;;;;;;4.63;3.60;;;;;;;20.01;58.29;93157.34;5006082;28;20042;-88
2023/06/09 00:44:41;;;;;;;4.05;3.65;;;;;;;20.01;58.13;93151.84;5022744;28;20057;-89
2023/06/09 00:47:07;;;;;;;4.20;3.45;;;;;;;19.98;57.98;93158.38;4990320;28;20049;-88
2023/06/09 00:49:33;;;;;;;4.45;3.72;;;;;;;19.98;58.24;93150.88;4994518;28;20038;-89
2023/06/09 00:51:58;;;;;;;5.00;4.20;;;;;;;19.97;58.29;93149.41;5027090;28;20123;-87
2023/06/09 00:54:23;;;;;;;4.30;3.63;;;;;;;19.97;58.20;93145.94;5041818;28;20609;-88
2023/06/09 00:56:50;;;;;;;4.05;3.55;;;;;;;19.98;58.30;93147.41;5007215;28;20046;-90
2023/06/09 00:59:15;;;;;;;4.18;3.78;;;;;;;19.99;58.34;93149.63;5025818;28;20057;-88
2023/06/09 01:01:43;;;;;;;4.80;3.83;;;;;;;19.96;58.28;93150.69;5026088;28;20061;-90
2023/06/09 01:04:08;;;;;;;5.35;4.05;;;;;;;19.97;58.15;93149.41;5009637;28;20052;-88
2023/06/09 01:06:50;;;;;;;4.88;3.92;;;;;;;19.98;58.10;93153.63;5025651;28;20038;-89
2023/06/09 01:09:22;;;;;;;5.03;4.15;;;;;;;19.98;58.10;93148.16;5025056;28;20033;-89
2023/06/09 01:12:08;;;;;;;4.50;3.80;;;;;;;19.98;58.00;93150.88;5008536;28;20557;-90
2023/06/09 01:14:41;;;;;;;4.63;3.88;;;;;;;19.98;58.15;93148.16;5019541;28;20122;-88
2023/06/09 01:17:10;;;;;;;4.97;3.72;;;;;;;19.99;58.01;93148.88;5042169;28;20041;-89
2023/06/09 01:19:41;;;;;;;4.00;3.60;;;;;;;19.96;57.93;93141.72;4992928;28;20045;-88
2023/06/09 01:22:42;;;;;;;4.25;3.42;;;;;;;19.96;58.07;93142.44;5026357;28;20045;-88
2023/06/09 01:25:37;;;;;;;6.15;4.18;;;;;;;19.96;57.90;93134.22;5049697;28;20368;-88
2023/06/09 01:28:11;;;;;;;3.90;3.50;;;;;;;19.96;58.23;93133.47;5050059;28;20049;-88
2023/06/09 01:30:37;;;;;;;5.00;3.97;;;;;;;19.94;57.99;93136.75;5015153;28;20045;-89
2023/06/09 01:33:05;;;;;;;4.85;3.80;;;;;;;19.96;57.90;93136.97;5015943;28;20044;-88
2023/06/09 01:35:30;;;;;;;4.95;3.80;;;;;;;19.97;58.00;93123.97;5046159;28;20069;-90
2023/06/09 01:37:56;;;;;;;5.00;3.67;;;;;;;19.94;57.86;93123.03;5043126;28;20041;-89
2023/06/09 01:40:21;;;;;;;4.30;3.67;;;;;;;19.94;58.01;93117.53;5002434;28;20044;-88
2023/06/09 01:42:47;;;;;;;4.45;3.85;;;;;;;19.98;57.96;93114.47;5026914;28;20403;-89
2023/06/09 01:45:12;;;;;;;4.28;3.70;;;;;;;19.94;57.79;93114.78;5032160;28;20045;-89
2023/06/09 01:47:38;;;;;;;3.90;3.40;;;;;;;19.92;57.98;93106.34;5016262;28;20087;-91
2023/06/09 01:50:07;;;;;;;3.83;3.42;;;;;;;19.94;57.95;93100.34;5016044;28;20041;-90
2023/06/09 01:52:42;;;;;;;3.78;3.40;;;;;;;19.94;57.95;93112.06;5043684;28;20108;-88
2023/06/09 01:55:13;;;;;;;4.00;3.65;;;;;;;19.92;57.86;93106.34;5045752;28;20752;-88
2023/06/09 01:57:42;;;;;;;4.28;3.47;;;;;;;19.93;57.79;93115.31;4996685;28;20041;-89
2023/06/09 02:00:08;;;;;;;4.32;3.90;;;;;;;19.96;57.89;93117.75;5045524;28;20033;-88
2023/06/09 02:02:34;;;;;;;4.40;3.58;;;;;;;19.94;58.00;93106.56;5031005;28;20049;-88
2023/06/09 02:04:59;;;;;;;5.15;3.40;;;;;;;19.95;57.80;93119.03;5044499;28;20071;-88
2023/06/09 02:07:25;;;;;;;4.10;3.60;;;;;;;19.94;57.94;93120.28;5014924;28;20037;-90
2023/06/09 02:09:50;;;;;;;4.15;3.45;;;;;;;19.93;58.03;93118.06;5035269;28;20711;-90
2023/06/09 02:12:16;;;;;;;3.63;2.95;;;;;;;19.92;57.95;93122.09;5031730;28;20046;-89
2023/06/09 02:14:42;;;;;;;4.30;3.65;;;;;;;19.92;57.85;93111.84;5031848;28;20517;-89
2023/06/09 02:17:08;;;;;;;4.18;3.40;;;;;;;19.91;58.02;93112.41;5031993;28;20060;-89
2023/06/09 02:19:37;;;;;;;4.15;3.45;;;;;;;19.90;57.85;93114.41;5031321;28;20056;-88
2023/06/09 02:22:03;;;;;;;4.53;3.55;;;;;;;19.93;57.86;93115.31;4999864;28;20053;-89
2023/06/09 02:24:28;;;;;;;3.70;3.22;;;;;;;19.91;58.06;93121.38;5031088;28;20265;-87
2023/06/09 02:26:56;;;;;;;3.55;3.25;;;;;;;19.92;57.87;93122.09;5045045;28;20033;-90
2023/06/09 02:29:23;;;;;;;3.63;3.33;;;;;;;19.93;57.92;93121.56;5060861;28;20037;-88
2023/06/09 02:31:49;;;;;;;4.72;3.80;;;;;;;19.94;57.98;93120.28;5048961;28;20554;-89
2023/06/09 02:34:14;;;;;;;4.65;3.78;;;;;;;19.93;57.72;93118.81;5030144;28;20536;-90
2023/06/09 02:36:42;;;;;;;4.35;3.72;;;;;;;19.92;57.89;93114.59;5043940;28;20103;-90
2023/06/09 02:39:08;;;;;;;4.43;3.83;;;;;;;19.91;57.83;93120.63;5025265;28;20045;-88
2023/06/09 02:41:33;;;;;;;3.80;3.35;;;;;;;19.92;57.79;93120.06;5064306;28;20468;-88
2023/06/09 02:43:58;;;;;;;5.88;3.65;;;;;;;19.91;57.68;93107.66;5064203;28;20041;-87
2023/06/09 02:46:25;;;;;;;4.47;3.88;;;;;;;19.91;57.87;93113.13;5040746;28;20033;-89
2023/06/09 02:48:50;;;;;;;3.90;3.50;;;;;;;19.92;57.72;93125.56;5047808;28;20041;-89
2023/06/09 02:51:15;;;;;;;3.95;3.50;;;;;;;19.91;57.69;93126.84;5030180;28;20028;-88
2023/06/09 02:53:41;;;;;;;3.95;3.50;;;;;;;19.91;57.84;93106.91;5034285;28;20060;-88
2023/06/09 02:56:06;;;;;;;4.63;3.53;;;;;;;19.89;57.78;93112.19;5007190;28;20491;-91
2023/06/09 02:58:32;;;;;;;4.28;3.15;;;;;;;19.89;57.82;93118.41;5038328;28;20052;-89
2023/06/09 03:00:57;;;;;;;4.00;3.47;;;;;;;19.88;57.66;93114.19;5050863;28;20307;-88
2023/06/09 03:03:23;;;;;;;4.82;3.83;;;;;;;19.87;57.88;93122.94;5041256;28;20057;-88
2023/06/09 03:05:49;;;;;;;4.68;3.40;;;;;;;19.91;57.74;93126.84;5008262;28;20037;-88
2023/06/09 03:08:15;;;;;;;4.05;3.65;;;;;;;19.89;57.76;93125.91;5027764;28;20079;-89
2023/06/09 03:10:41;;;;;;;3.90;3.40;;;;;;;19.88;57.84;93127.91;5039376;28;20041;-89
2023/06/09 03:13:07;;;;;;;4.50;3.40;;;;;;;19.88;57.76;93127.16;5028009;28;20499;-88
2023/06/09 03:15:33;;;;;;;4.40;3.58;;;;;;;19.89;57.63;93129.38;5028247;28;20069;-90
2023/06/09 03:17:58;;;;;;;3.35;3.05;;;;;;;19.91;57.62;93126.09;5011951;28;20049;-89
2023/06/09 03:20:24;;;;;;;4.13;3.28;;;;;;;19.88;57.75;93130.66;5044304;28;20377;-90
2023/06/09 03:22:52;;;;;;;4.40;3.35;;;;;;;19.88;57.69;93122.41;5010582;28;20511;-88
2023/06/09 03:25:21;;;;;;;3.58;3.22;;;;;;;19.88;57.92;93125.16;5027249;28;20060;-89
2023/06/09 03:27:46;;;;;;;3.63;2.67;;;;;;;19.89;57.47;93123.16;5016288;28;20072;-90
2023/06/09 03:30:14;;;;;;;3.85;3.05;;;;;;;19.88;57.49;93125.16;5027929;28;20088;-91
2023/06/09 03:32:40;;;;;;;3.63;3.08;;;;;;;19.87;57.61;93117.44;5011543;28;20048;-90
2023/06/09 03:35:05;;;;;;;4.03;3.40;;;;;;;19.86;57.56;93124.94;5010287;28;20051;-90
2023/06/09 03:37:31;;;;;;;3.47;3.17;;;;;;;19.86;57.65;93133.19;4997395;28;20122;-88
2023/06/09 03:39:56;;;;;;;3.83;3.20;;;;;;;19.87;57.59;93131.16;5027687;28;20049;-89
2023/06/09 03:42:21;;;;;;;3.42;3.08;;;;;;;19.88;57.63;93135.38;5010298;28;20045;-88
2023/06/09 03:44:47;;;;;;;4.28;3.25;;;;;;;19.87;57.66;93136.66;5005415;28;20053;-91
2023/06/09 03:47:14;;;;;;;4.10;3.03;;;;;;;19.85;57.65;93137.19;5026776;28;20052;-88
2023/06/09 03:49:39;;;;;;;3.70;3.05;;;;;;;19.85;57.93;93145.41;5028020;28;20048;-89
2023/06/09 03:52:06;;;;;;;4.28;3.40;;;;;;;19.87;57.59;93148.38;5010833;28;20399;-90
2023/06/09 03:54:31;;;;;;;4.15;3.38;;;;;;;19.84;57.80;93149.41;5027284;28;20041;-88
2023/06/09 03:56:57;;;;;;;4.13;3.72;;;;;;;19.87;57.67;93144.88;5011471;28;20392;-91
2023/06/09 03:59:22;;;;;;;3.80;3.42;;;;;;;19.86;57.61;93155.13;5013711;28;20104;-88
2023/06/09 04:01:48;;;;;;;3.95;3.10;;;;;;;19.86;57.53;93152.38;5032532;28;20048;-88
2023/06/09 04:04:14;;;;;;;3.38;2.60;;;;;;;19.86;57.64;93149.63;5048367;28;20048;-91
2023/06/09 04:06:45;;;;;;;3.75;3.35;;;;;;;19.87;57.70;93153.13;5017526;28;20041;-90
2023/06/09 04:09:12;;;;;;;3.65;3.10;;;;;;;19.84;57.66;93152.91;5046097;28;20046;-89
2023/06/09 04:11:38;;;;;;;3.63;2.80;;;;;;;19.85;57.41;93148.16;5057056;28;20068;-90
2023/06/09 04:14:04;;;;;;;3.28;2.80;;;;;;;19.87;57.57;93147.63;5046965;28;20049;-89
2023/06/09 04:16:29;;;;;;;4.20;3.33;;;;;;;19.83;57.65;93159.66;5041002;28;20033;-89
2023/06/09 04:18:55;;;;;;;3.50;2.92;;;;;;;19.86;57.54;93155.13;5044343;28;20447;-89
2023/06/09 04:21:20;;;;;;;3.60;3.20;;;;;;;19.86;57.58;93160.59;5043564;28;20037;-92
2023/06/09 04:23:45;;;;;;;4.50;3.30;;;;;;;19.85;57.56;93164.59;5036732;28;20049;-88
2023/06/09 04:26:13;;;;;;;4.35;3.28;;;;;;;19.85;57.47;93167.34;5044471;28;20403;-91
2023/06/09 04:28:39;;;;;;;4.63;3.63;;;;;;;19.86;57.46;93166.09;5013186;28;20495;-91
2023/06/09 04:31:07;;;;;;;3.28;2.60;;;;;;;19.85;57.42;93161.88;5028274;28;20041;-89
2023/06/09 04:33:36;;;;;;;3.13;2.80;;;;;;;19.86;57.52;93166.09;5011609;28;20041;-88
2023/06/09 04:36:03;;;;;;;3.17;2.88;;;;;;;19.85;57.39;93164.59;4993757;28;20038;-89
2023/06/09 04:38:35;;;;;;;3.53;3.10;;;;;;;19.85;57.35;93162.59;5017140;28;20095;-89
2023/06/09 04:41:03;;;;;;;4.07;2.67;;;;;;;19.88;57.45;93160.81;5011742;28;20610;-89
2023/06/09 04:43:29;;;;;;;3.30;3.00;;;;;;;19.88;57.36;93155.34;5030177;28;20747;-89
2023/06/09 04:45:56;;;;;;;4.93;3.13;;;;;;;19.85;57.32;93153.63;5041098;28;20080;-88
2023/06/09 04:48:21;;;;;;;3.30;2.95;;;;;;;19.87;57.27;93164.81;5010143;28;20338;-88
2023/06/09 04:50:47;;;;;;;3.38;3.08;;;;;;;19.85;57.36;93157.13;5048167;28;20075;-90
2023/06/09 04:53:15;;;;;;;3.95;3.35;;;;;;;19.86;57.40;93152.38;5046788;28;20060;-88
2023/06/09 04:55:41;;;;;;;3.13;2.80;;;;;;;19.86;57.45;93155.13;5014930;28;20053;-89
2023/06/09 04:58:07;;;;;;;2.85;2.58;;;;;;;19.85;57.29;93148.16;5034854;28;20045;-88
2023/06/09 05:00:33;;;;;;;3.10;2.80;;;;;;;19.87;57.39;93151.13;5044654;28;20048;-89
2023/06/09 05:02:59;;;;;;;3.03;2.22;;;;;;;19.86;57.48;93160.59;5031762;28;20048;-89
2023/06/09 05:05:25;;;;;;;3.60;3.13;;;;;;;19.85;57.39;93159.88;5026411;28;20037;-88
2023/06/09 05:07:51;;;;;;;2.90;2.60;;;;;;;19.87;57.41;93158.59;5040525;28;20550;-89
2023/06/09 05:10:16;;;;;;;3.22;2.92;;;;;;;19.88;57.36;93169.06;5043282;28;20037;-88
2023/06/09 05:12:42;;;;;;;4.80;3.00;;;;;;;19.91;57.24;93170.75;5025210;28;20041;-91
2023/06/09 05:15:08;;;;;;;3.40;2.78;;;;;;;19.89;57.62;93167.78;5030418;28;20037;-88
2023/06/09 05:17:33;;;;;;;3.25;2.63;;;;;;;19.89;57.53;93175.28;5039825;28;20116;-89
2023/06/09 05:19:59;;;;;;;3.85;2.90;;;;;;;19.86;57.55;93168.84;5048803;28;20033;-90
2023/06/09 05:22:25;;;;;;;3.25;1.95;;;;;;;19.88;57.53;93171.78;5005292;28;20029;-90
2023/06/09 05:24:50;;;;;;;3.53;2.50;;;;;;;19.89;57.38;93178.03;5028369;28;20067;-90
2023/06/09 05:27:16;;;;;;;2.85;2.55;;;;;;;19.87;57.39;93184.03;5044867;28;20053;-88
2023/06/09 05:29:41;;;;;;;3.30;2.97;;;;;;;19.88;57.34;93182.03;5041105;28;20044;-88
2023/06/09 05:32:06;;;;;;;2.72;2.33;;;;;;;19.88;57.42;93174.53;5019800;28;20425;-90
2023/06/09 05:34:32;;;;;;;2.35;2.08;;;;;;;19.91;57.43;93183.72;4995222;28;20042;-89
2023/06/09 05:36:57;;;;;;;2.33;2.08;;;;;;;19.88;57.42;93185.50;5012410;28;20045;-90
2023/06/09 05:39:23;;;;;;;2.70;2.25;;;;;;;19.90;57.42;93174.75;5022903;28;20037;-90
2023/06/09 05:41:48;;;;;;;4.47;3.03;;;;;;;19.89;57.66;93186.25;5067333;28;20037;-90
2023/06/09 05:44:14;;;;;;;3.75;2.75;;;;;;;19.92;57.54;93185.19;5053559;28;20624;-90
2023/06/09 05:46:39;;;;;;;2.55;2.35;;;;;;;19.91;57.42;93189.94;5060911;28;20067;-91
2023/06/09 05:49:05;;;;;;;3.20;2.90;;;;;;;19.92;57.34;93180.44;5034477;28;20029;-89
2023/06/09 05:51:32;;;;;;;2.45;2.25;;;;;;;19.91;57.45;93180.97;5051489;28;20096;-90
2023/06/09 05:53:58;;;;;;;2.65;2.45;;;;;;;19.91;57.19;93178.97;5033731;28;20041;-90
2023/06/09 05:56:25;;;;;;;2.97;2.40;;;;;;;19.90;57.37;93185.00;5034339;28;20041;-90
2023/06/09 05:58:51;;;;;;;3.47;2.70;;;;;;;19.91;57.43;93180.97;5017365;28;20033;-90
2023/06/09 06:01:17;;;;;;;4.15;2.67;;;;;;;19.94;57.27;93177.16;5040541;28;20044;-90
2023/06/09 06:03:43;;;;;;;3.67;2.70;;;;;;;19.96;57.04;93182.88;5051174;28;20040;-89
2023/06/09 06:06:10;;;;;;;3.00;2.70;;;;;;;19.96;57.40;93183.59;5029771;28;20099;-90
2023/06/09 06:08:35;;;;;;;3.25;2.67;;;;;;;19.96;57.33;93178.13;5055782;28;20491;-90
2023/06/09 06:11:01;;;;;;;3.15;2.67;;;;;;;19.98;57.32;93180.34;4994402;28;20120;-90
2023/06/09 06:13:26;;;;;;;2.67;2.20;;;;;;;19.99;57.22;93179.06;5032611;28;20105;-91
2023/06/09 06:15:52;;;;;;;2.53;2.17;;;;;;;20.00;57.38;93175.06;5001680;28;20128;-90
2023/06/09 06:18:17;;;;;;;3.47;2.90;;;;;;;19.99;57.17;93179.81;4999543;28;20060;-90
2023/06/09 06:20:44;;;;;;;2.38;2.03;;;;;;;19.96;57.40;93186.34;5016866;28;20033;-90
2023/06/09 06:23:11;;;;;;;2.67;2.47;;;;;;;19.98;57.54;93181.06;5030067;28;20033;-90
2023/06/09 06:25:41;;;;;;;3.67;2.10;;;;;;;19.97;57.38;93176.09;5034814;28;20124;-89
2023/06/09 06:28:06;;;;;;;1.73;1.58;;;;;;;19.99;57.35;93179.06;5030034;28;20052;-89
2023/06/09 06:30:42;;;;;;;2.33;2.05;;;;;;;20.00;57.77;93178.53;5017613;28;20044;-89
2023/06/09 06:33:07;;;;;;;2.90;2.28;;;;;;;19.98;57.51;93186.56;5013979;28;20053;-90
2023/06/09 06:35:33;;;;;;;2.92;2.60;;;;;;;20.00;57.56;93175.06;5014465;28;20075;-91
2023/06/09 06:37:58;;;;;;;3.28;2.53;;;;;;;20.01;58.15;93176.53;5014182;28;20033;-89
2023/06/09 06:40:24;;;;;;;2.30;2.10;;;;;;;19.98;58.23;93174.84;4996215;28;20056;-89
2023/06/09 06:42:49;;;;;;;2.60;2.40;;;;;;;19.96;58.23;93172.63;5030135;28;20056;-89
2023/06/09 06:45:22;;;;;;;3.83;3.20;;;;;;;19.97;58.48;93170.63;5006811;28;20083;-90
2023/06/09 06:47:49;;;;;;;3.28;2.83;;;;;;;19.97;58.35;93176.09;5017222;28;20065;-89
2023/06/09 06:50:15;;;;;;;3.50;3.17;;;;;;;19.98;58.54;93177.59;5008203;28;20561;-90
2023/06/09 06:52:40;;;;;;;3.53;2.47;;;;;;;20.01;58.13;93174.53;4997229;28;20067;-90
2023/06/09 06:55:07;;;;;;;4.00;3.28;;;;;;;19.99;58.44;93179.06;5011742;28;20426;-90
2023/06/09 06:57:34;;;;;;;6.13;2.97;;;;;;;20.01;58.47;93168.31;5029253;28;20037;-91
2023/06/09 06:59:59;;;;;;;3.25;2.85;;;;;;;20.00;58.45;93175.78;5011070;28;20127;-90
2023/06/09 07:02:25;;;;;;;6.15;3.03;;;;;;;20.01;58.02;93174.53;5015502;28;20043;-89
2023/06/09 07:04:51;;;;;;;4.63;3.78;;;;;;;19.99;59.02;93177.06;5034497;28;20080;-90
2023/06/09 07:07:17;;;;;;;6.88;5.13;;;;;;;19.96;59.77;93185.59;4996032;28;20041;-89
2023/06/09 07:09:51;;;;;;;14.25;11.48;;;;;;;19.93;59.90;93181.16;5066812;28;20052;-90
2023/06/09 07:12:18;;;;;;;16.63;10.90;;;;;;;19.96;59.87;93178.13;5015719;28;20072;-89
2023/06/09 07:14:43;;;;;;;10.00;7.22;;;;;;;19.91;60.17;93184.47;5018627;28;20254;-91
2023/06/09 07:17:09;;;;;;;8.05;6.90;;;;;;;19.95;59.83;93187.59;5026792;28;20553;-90
2023/06/09 07:19:35;;;;;;;33.70;15.18;;;;;;;19.95;59.94;93193.09;5024567;28;20044;-90
2023/06/09 07:22:01;;;;;;;10.57;7.38;;;;;;;19.95;59.81;93190.34;5043494;28;20041;-89
2023/06/09 07:24:26;;;;;;;8.00;6.55;;;;;;;19.98;59.59;93192.03;5046267;28;20068;-89
2023/06/09 07:26:53;;;;;;;9.43;6.85;;;;;;;19.99;60.44;93184.56;5057456;28;20042;-90
2023/06/09 07:29:18;;;;;;;8.77;6.65;;;;;;;20.01;60.30;93188.25;5042467;28;20055;-89
2023/06/09 07:31:44;;;;;;;8.23;6.30;;;;;;;19.98;60.20;93194.78;5059670;28;20072;-91
2023/06/09 07:34:10;;;;;;;9.07;5.93;;;;;;;20.03;60.44;93188.47;5041854;28;20041;-89
2023/06/09 07:36:37;;;;;;;8.05;6.32;;;;;;;20.05;61.44;93187.94;5059423;28;20518;-90
2023/06/09 07:39:04;;;;;;;7.65;6.07;;;;;;;20.07;61.44;93193.66;5024943;28;20030;-88
2023/06/09 07:41:30;;;;;;;5.90;5.30;;;;;;;20.12;61.06;93192.81;5058543;28;20037;-90
2023/06/09 07:43:56;;;;;;;6.15;4.93;;;;;;;20.04;61.58;93186.47;5011903;28;20444;-90
2023/06/09 07:46:22;;;;;;;8.52;5.63;;;;;;;20.06;61.04;93176.44;5023723;28;20045;-89
2023/06/09 07:48:49;;;;;;;5.55;4.95;;;;;;;20.14;63.04;93179.28;5036674;28;20095;-89
2023/06/09 07:51:16;;;;;;;6.38;4.22;;;;;;;20.14;60.88;93173.78;5034748;28;20037;-88
2023/06/09 07:53:42;;;;;;;5.68;4.63;;;;;;;20.15;62.15;93184.25;5033959;28;20071;-88
2023/06/09 07:56:08;;;;;;;6.93;4.43;;;;;;;20.09;61.22;93178.13;5053066;28;20036;-88
2023/06/09 07:58:33;;;;;;;5.82;4.80;;;;;;;20.14;62.08;93173.78;5055236;28;20475;-88
2023/06/09 08:00:59;;;;;;;6.38;4.68;;;;;;;20.12;61.42;93173.59;5051104;28;20063;-88
2023/06/09 08:03:25;;;;;;;4.97;4.47;;;;;;;20.12;60.79;93166.09;5056154;28;20060;-88
2023/06/09 08:05:51;;;;;;;5.13;4.45;;;;;;;20.14;60.94;93165.56;5042350;28;20055;-89
2023/06/09 08:08:20;;;;;;;6.75;4.72;;;;;;;20.17;60.35;93168.00;5049389;28;20111;-88
2023/06/09 08:10:45;;;;;;;5.22;4.45;;;;;;;20.18;59.61;93161.22;5019517;28;20099;-88
2023/06/09 08:13:21;;;;;;;5.03;4.53;;;;;;;20.14;59.79;93158.06;5046239;28;20040;-88
2023/06/09 08:15:47;;;;;;;5.45;4.35;;;;;;;20.14;59.66;93168.31;5060523;28;20692;-88
2023/06/09 08:18:12;;;;;;;6.97;5.05;;;;;;;20.13;59.87;93162.09;5037449;28;20060;-89
2023/06/09 08:20:40;;;;;;;5.38;4.57;;;;;;;20.19;59.42;93170.22;5052778;28;20323;-88
2023/06/09 08:23:07;;;;;;;8.13;4.50;;;;;;;20.11;59.61;93161.88;5028083;28;20481;-88
2023/06/09 08:25:33;;;;;;;4.88;4.30;;;;;;;20.15;59.07;93167.03;5054294;28;20042;-87
2023/06/09 08:27:58;;;;;;;7.40;4.97;;;;;;;20.13;58.98;93164.84;5071824;28;20086;-89
2023/06/09 08:30:24;;;;;;;4.78;4.00;;;;;;;20.12;58.96;93170.84;5060032;28;20041;-88
2023/06/09 08:32:49;;;;;;;5.10;4.60;;;;;;;20.15;58.55;93172.53;5014794;28;20048;-89
2023/06/09 08:35:15;;;;;;;8.60;4.65;;;;;;;20.14;57.97;93171.03;5026166;28;20077;-87
2023/06/09 08:37:41;;;;;;;34.45;24.90;;;;;;;20.13;58.22;93170.34;5037998;28;20048;-92
2023/06/09 08:40:08;;;;;;;20.92;14.05;;;;;;;20.15;58.61;93167.03;5053271;28;20037;-87
2023/06/09 08:42:33;;;;;;;10.45;6.90;;;;;;;20.18;58.15;93174.97;5011458;28;20075;-88
2023/06/09 08:45:01;;;;;;;9.15;6.70;;;;;;;20.19;58.39;93168.19;5020022;28;20056;-90
2023/06/09 08:47:27;;;;;;;5.75;5.15;;;;;;;20.21;58.28;93159.44;5026681;28;20033;-91
2023/06/09 08:49:57;;;;;;;4.97;4.30;;;;;;;20.21;58.37;93156.69;5038549;28;20033;-88
2023/06/09 08:52:25;;;;;;;10.68;4.97;;;;;;;20.22;58.11;93160.91;5040701;28;20129;-88
2023/06/09 08:54:52;;;;;;;57.35;49.47;;;;;;;20.24;58.23;93163.88;5043352;28;20037;-90
2023/06/09 08:57:20;;;;;;;21.33;16.33;;;;;;;20.26;58.17;93157.84;5010315;28;20053;-88
2023/06/09 08:59:46;;;;;;;30.60;25.50;;;;;;;20.24;58.03;93166.63;5040739;28;20403;-87
2023/06/09 09:02:12;;;;;;;27.98;21.80;;;;;;;20.22;58.01;93163.66;5040651;28;20041;-91
2023/06/09 09:04:38;;;;;;;20.15;6.53;;;;;;;20.25;58.31;93170.09;5060274;28;20056;-91
2023/06/09 09:07:05;;;;;;;13.90;6.40;;;;;;;20.25;57.79;93175.59;5039954;28;20044;-90
2023/06/09 09:09:31;;;;;;;19.40;6.18;;;;;;;20.25;58.19;93165.34;5009697;28;20057;-88
2023/06/09 09:12:02;;;;;;;14.18;5.25;;;;;;;20.22;58.31;93171.91;5033871;28;20042;-91
2023/06/09 09:14:28;;;;;;;12.18;4.88;;;;;;;20.20;58.39;93166.19;5037652;28;20052;-91
2023/06/09 09:16:54;;;;;;;18.30;5.53;;;;;;;20.22;58.07;93166.41;5031721;28;20501;-89
2023/06/09 09:19:28;;;;;;;11.70;5.05;;;;;;;20.24;58.12;93169.38;5026479;28;20135;-92
2023/06/09 09:21:55;;;;;;;9.85;5.60;;;;;;;20.20;58.21;93163.44;5015369;28;20045;-90
2023/06/09 09:24:20;;;;;;;11.68;5.63;;;;;;;20.20;58.37;93155.97;5021755;28;20030;-90
2023/06/09 09:26:45;;;;;;;13.05;4.82;;;;;;;20.25;58.11;93162.59;5003599;28;20041;-91
2023/06/09 09:29:16;;;;;;;8.88;4.95;;;;;;;20.24;58.43;93158.38;5045000;28;20041;-89
2023/06/09 09:31:41;;;;;;;8.00;5.50;;;;;;;20.25;58.03;93161.88;5006632;28;20052;-88
2023/06/09 09:34:13;;;;;;;6.05;4.80;;;;;;;20.26;58.44;93158.59;5040322;28;20475;-88
2023/06/09 09:36:42;;;;;;;9.95;5.40;;;;;;;20.25;58.55;93161.88;5026454;28;20073;-90
2023/06/09 09:39:08;;;;;;;13.40;5.28;;;;;;;20.24;58.50;93168.63;5005162;28;20037;-91
2023/06/09 09:41:33;;;;;;;6.97;5.43;;;;;;;20.26;58.40;93172.31;5004152;28;20048;-88
2023/06/09 09:43:59;;;;;;;8.00;5.13;;;;;;;20.25;58.48;93172.84;5026784;28;20038;-88
2023/06/09 09:46:24;;;;;;;8.10;6.43;;;;;;;20.21;58.40;93173.16;5027067;28;20033;-90
2023/06/09 09:48:50;;;;;;;6.72;6.03;;;;;;;20.23;58.58;93172.63;4995917;28;20045;-90
2023/06/09 09:51:16;;;;;;;8.20;5.80;;;;;;;20.22;58.64;93169.16;5023331;28;20184;-92
2023/06/09 09:53:45;;;;;;;7.57;4.90;;;;;;;20.20;58.71;93166.94;5012568;28;20079;-88
2023/06/09 09:56:11;;;;;;;7.53;6.55;;;;;;;20.19;58.61;93162.72;5010684;28;20530;-88
2023/06/09 09:58:36;;;;;;;8.13;6.60;;;;;;;20.23;58.62;93169.88;5028121;28;20046;-90
2023/06/09 10:01:06;;;;;;;8.75;5.80;;;;;;;20.24;58.58;93150.16;5023373;28;20068;-89
2023/06/09 10:03:33;;;;;;;6.95;6.25;;;;;;;20.25;58.41;93165.34;4975395;28;20109;-89
2023/06/09 10:06:00;;;;;;;15.57;6.82;;;;;;;20.26;58.55;93160.59;5006526;28;20049;-91
2023/06/09 10:08:30;;;;;;;11.27;6.07;;;;;;;20.25;58.66;93154.38;4999300;28;20033;-89
2023/06/09 10:11:02;;;;;;;8.95;7.13;;;;;;;20.29;58.32;93154.81;5008335;28;20042;-89
2023/06/09 10:13:27;;;;;;;7.20;6.45;;;;;;;20.26;58.62;93152.38;5028346;28;20041;-89
2023/06/09 10:15:53;;;;;;;9.77;6.97;;;;;;;20.25;58.84;93153.63;5028242;28;20045;-90
2023/06/09 10:18:19;;;;;;;15.43;7.15;;;;;;;20.26;58.44;93144.13;5011220;28;20041;-89
2023/06/09 10:20:45;;;;;;;9.75;7.47;;;;;;;20.26;58.70;93160.59;4995441;28;20068;-89
2023/06/09 10:23:10;;;;;;;7.30;5.82;;;;;;;20.33;58.42;93159.97;5011043;28;20045;-90
2023/06/09 10:25:36;;;;;;;9.20;7.10;;;;;;;20.25;58.63;93148.16;4994341;28;20049;-90
2023/06/09 10:28:02;;;;;;;15.98;9.40;;;;;;;20.24;58.69;93147.41;5011899;28;20037;-91
2023/06/09 10:30:27;;;;;;;13.35;7.35;;;;;;;20.28;58.55;93150.56;4994037;28;20077;-91
2023/06/09 10:32:58;;;;;;;15.05;6.70;;;;;;;20.23;58.73;93145.19;5010997;28;20034;-89
2023/06/09 10:35:26;;;;;;;9.07;6.50;;;;;;;20.25;58.62;93153.63;4993835;28;20049;-90
2023/06/09 10:37:52;;;;;;;18.05;8.98;;;;;;;20.27;58.83;93151.09;4995376;28;20045;-89
2023/06/09 10:40:23;;;;;;;13.70;8.25;;;;;;;20.25;58.41;93146.13;4994264;28;20545;-89
2023/06/09 10:43:01;;;;;;;11.05;7.43;;;;;;;20.29;58.47;93140.34;5001047;28;20604;-91
2023/06/09 10:45:49;;;;;;;17.52;7.95;;;;;;;20.24;58.69;93146.66;5007959;28;20431;-89
2023/06/09 10:48:37;;;;;;;8.63;7.25;;;;;;;20.25;58.74;93135.16;4997186;28;20038;-89
2023/06/09 10:51:27;;;;;;;19.13;8.57;;;;;;;20.25;58.69;93139.91;5018699;28;20484;-89
2023/06/09 10:54:12;;;;;;;15.00;8.57;;;;;;;20.25;58.63;93137.91;5026340;28;20072;-89
2023/06/09 10:56:41;;;;;;;13.32;8.05;;;;;;;20.25;58.79;93129.66;5027210;28;20070;-91
2023/06/09 10:59:31;;;;;;;19.77;8.70;;;;;;;20.25;58.66;93126.94;4982944;28;20033;-89
2023/06/09 11:01:59;;;;;;;13.95;8.38;;;;;;;20.27;58.67;93134.63;5024264;28;20331;-91
2023/06/09 11:04:52;;;;;;;15.25;7.45;;;;;;;20.24;58.75;93133.69;5028033;28;20065;-89
2023/06/09 11:07:26;;;;;;;14.40;8.00;;;;;;;20.25;58.67;93135.16;5008804;28;20052;-91
2023/06/09 11:09:51;;;;;;;13.25;8.07;;;;;;;20.25;58.75;93128.94;4995795;28;20030;-90
2023/06/09 11:12:36;;;;;;;12.73;7.90;;;;;;;20.23;58.96;93134.94;5014701;28;20399;-89
2023/06/09 11:15:02;;;;;;;18.88;8.80;;;;;;;20.24;58.73;93128.19;5017099;28;20042;-89
2023/06/09 11:17:40;;;;;;;13.32;7.82;;;;;;;20.24;58.72;93127.44;5020663;28;20053;-88
2023/06/09 11:20:11;;;;;;;19.55;8.77;;;;;;;20.25;58.58;93129.66;5043537;28;20046;-89
2023/06/09 11:22:43;;;;;;;17.38;8.52;;;;;;;20.24;58.63;93141.19;5026085;28;20053;-88
2023/06/09 11:25:30;;;;;;;14.45;7.47;;;;;;;20.26;58.50;93146.88;5026587;28;20045;-88
2023/06/09 11:27:55;;;;;;;17.30;8.40;;;;;;;20.25;58.67;93137.91;5006445;28;20048;-88
2023/06/09 11:30:22;;;;;;;21.98;8.95;;;;;;;20.27;58.40;93143.59;5016305;28;20366;-91
2023/06/09 11:32:54;;;;;;;26.30;10.32;;;;;;;20.24;58.45;93141.19;5026747;28;20045;-89